Time;durP1;ratioP1;P1;durP2;ratioP2;P2;SDS_P1;SDS_P2;PMS_P1;PMS_P2;Temp;Humidity;BMP_temperature;BMP_pressure;BME280_temperature;BME280_humidity;BME280_pressure;Samples;Min_cycle;Max_cycle;Signal;HPM_P1;HPM_P2
2022/11/17 00:00:24;;;;;;;27.35;17.63;;;;;;;;;;5070032;28;20043;-56
2022/11/17 00:02:50;;;;;;;29.20;16.60;;;;;;;;;;5064946;28;20045;-56
2022/11/17 00:05:17;;;;;;;30.20;17.52;;;;;;;;;;5073634;28;20094;-56
2022/11/17 00:07:47;;;;;;;25.45;16.00;;;;;;;;;;5075961;28;20041;-56
2022/11/17 00:10:13;;;;;;;26.27;17.17;;;;;;;;;;5074711;28;20032;-56
2022/11/17 00:15:25;;;;;;;25.40;17.08;;;;;;;;;;5078102;28;20033;-56
2022/11/17 00:23:23;;;;;;;23.38;15.48;;;;;;;;;;5079230;28;20047;-56
2022/11/17 00:25:49;;;;;;;30.70;14.68;;;8.90;99.90;;;;;;5073133;28;20477;-54
2022/11/17 00:28:15;;;;;;;24.38;15.90;;;9.00;99.90;;;;;;5061831;28;20123;-54
2022/11/17 00:36:10;;;;;;;22.67;16.23;;;9.00;99.90;;;;;;5079141;28;20047;-56
2022/11/17 00:38:36;;;;;;;22.73;14.80;;;;;;;;;;5077605;28;20492;-55
2022/11/17 00:41:02;;;;;;;23.67;15.15;;;9.00;99.90;;;;;;5080040;28;20474;-56
2022/11/17 00:43:28;;;;;;;25.08;15.10;;;;;;;;;;5072412;28;20032;-55
2022/11/17 00:45:54;;;;;;;22.63;14.93;;;;;;;;;;5067203;28;20033;-55
2022/11/17 00:48:20;;;;;;;22.70;14.90;;;;;;;;;;5072693;28;20044;-56
2022/11/17 00:50:46;;;;;;;24.63;14.80;;;;;;;;;;5075571;28;20128;-56
2022/11/17 00:53:12;;;;;;;20.45;13.70;;;;;;;;;;5079371;28;20036;-54
2022/11/17 00:55:38;;;;;;;21.08;13.38;;;;;;;;;;5072444;28;20127;-55
2022/11/17 00:58:03;;;;;;;24.58;14.32;;;9.20;99.90;;;;;;5072571;28;20048;-55
2022/11/17 01:00:29;;;;;;;22.30;14.60;;;;;;;;;;5077452;28;20048;-56
2022/11/17 01:02:55;;;;;;;20.38;13.23;;;;;;;;;;5076548;28;20112;-55
2022/11/17 01:05:21;;;;;;;20.40;14.18;;;;;;;;;;5090467;28;20036;-55
2022/11/17 01:07:47;;;;;;;20.60;13.10;;;;;;;;;;5067822;22;20474;-59
2022/11/17 01:10:13;;;;;;;23.48;14.35;;;;;;;;;;5072235;28;20116;-59
2022/11/17 01:12:39;;;;;;;22.38;14.50;;;;;;;;;;5070024;28;20068;-59
2022/11/17 01:15:06;;;;;;;17.70;12.88;;;;;;;;;;5071483;28;20036;-59
2022/11/17 01:17:32;;;;;;;24.10;13.77;;;;;;;;;;5071263;28;20036;-59
2022/11/17 01:19:58;;;;;;;18.55;12.13;;;;;;;;;;5072214;28;20064;-59
2022/11/17 01:22:24;;;;;;;19.58;14.02;;;;;;;;;;5071767;28;20048;-59
2022/11/17 01:24:49;;;;;;;18.95;12.02;;;9.10;99.90;;;;;;5071644;28;20032;-59
2022/11/17 01:27:15;;;;;;;19.00;12.18;;;9.10;99.90;;;;;;5071237;28;20037;-59
2022/11/17 01:29:44;;;;;;;18.70;12.35;;;;;;;;;;5071007;28;20033;-58
2022/11/17 01:32:10;;;;;;;18.40;13.32;;;;;;;;;;5053702;28;20116;-59
2022/11/17 01:34:35;;;;;;;19.63;13.02;;;9.00;99.90;;;;;;5071487;28;20113;-58
2022/11/17 01:37:20;;;;;;;21.95;12.95;;;;;;;;;;5052642;28;20082;-59
2022/11/17 01:39:46;;;;;;;17.03;12.63;;;;;;;;;;5053589;28;20040;-58
2022/11/17 01:42:16;;;;;;;16.58;12.60;;;9.10;99.90;;;;;;5052403;28;20366;-58
2022/11/17 01:44:43;;;;;;;18.98;13.13;;;;;;;;;;5076574;28;20043;-58
2022/11/17 01:47:18;;;;;;;17.30;12.60;;;;;;;;;;5061619;28;20045;-59
2022/11/17 01:49:44;;;;;;;16.08;12.00;;;;;;;;;;5071403;28;20044;-58
2022/11/17 01:52:11;;;;;;;17.67;12.82;;;;;;;;;;5063040;28;20040;-59
2022/11/17 01:54:39;;;;;;;17.90;12.52;;;;;;;;;;5080660;28;20039;-59
2022/11/17 01:57:18;;;;;;;14.98;10.85;;;9.10;99.90;;;;;;5073072;28;20498;-58
2022/11/17 02:00:06;;;;;;;15.48;11.20;;;8.80;99.90;;;;;;5053753;28;20044;-58
2022/11/17 02:02:33;;;;;;;19.90;13.18;;;;;;;;;;5068230;28;20401;-59
2022/11/17 02:05:04;;;;;;;16.17;10.88;;;;;;;;;;5070327;28;20116;-58
2022/11/17 02:07:33;;;;;;;15.05;10.45;;;9.70;99.90;;;;;;5051542;28;20052;-58
2022/11/17 02:10:00;;;;;;;17.70;11.82;;;;;;;;;;5070888;28;20028;-58
2022/11/17 02:12:27;;;;;;;16.85;11.50;;;;;;;;;;5071079;28;20047;-58
2022/11/17 02:14:53;;;;;;;18.67;11.73;;;;;;;;;;5070384;28;20109;-55
2022/11/17 02:17:20;;;;;;;16.88;11.70;;;;;;;;;;5070366;28;20035;-58
2022/11/17 02:19:52;;;;;;;19.10;12.60;;;;;;;;;;5070735;28;20078;-58
2022/11/17 02:22:26;;;;;;;17.85;12.07;;;9.00;99.90;;;;;;5070734;28;20040;-57
2022/11/17 02:25:07;;;;;;;18.52;11.55;;;9.20;99.90;;;;;;5070200;28;20037;-58
2022/11/17 02:27:48;;;;;;;16.45;11.50;;;;;;;;;;5069681;28;20040;-58
2022/11/17 02:30:17;;;;;;;15.70;10.00;;;9.00;99.90;;;;;;5070220;28;20040;-58
2022/11/17 02:33:11;;;;;;;16.95;11.73;;;8.90;99.90;;;;;;5073101;28;20040;-59
2022/11/17 02:35:42;;;;;;;17.60;11.55;;;8.80;99.90;;;;;;5076465;28;20044;-58
2022/11/17 02:38:31;;;;;;;15.50;11.30;;;;;;;;;;5064205;28;20086;-58
2022/11/17 02:41:16;;;;;;;17.42;11.68;;;;;;;;;;5070388;28;20037;-58
2022/11/17 02:44:02;;;;;;;16.42;11.48;;;;;;;;;;5070467;28;20047;-58
2022/11/17 02:46:31;;;;;;;19.75;12.18;;;9.30;99.90;;;;;;5070122;28;20033;-58
2022/11/17 02:49:02;;;;;;;16.80;11.73;;;8.80;99.90;;;;;;5070030;28;20504;-58
2022/11/17 02:51:29;;;;;;;17.38;11.60;;;;;;;;;;5070103;28;20028;-58
2022/11/17 02:53:56;;;;;;;18.15;11.65;;;8.80;99.90;;;;;;5070489;28;20181;-58
2022/11/17 02:56:22;;;;;;;18.35;12.02;;;;;;;;;;5069998;28;20040;-59
2022/11/17 02:58:54;;;;;;;16.98;11.50;;;;;;;;;;5069631;28;20090;-59
2022/11/17 03:01:33;;;;;;;20.75;12.77;;;;;;;;;;5069946;28;20554;-58
2022/11/17 03:04:02;;;;;;;19.05;12.82;;;8.40;99.90;;;;;;5063120;28;20049;-58
2022/11/17 03:06:45;;;;;;;17.73;12.38;;;;;;;;;;5069824;28;20415;-58
2022/11/17 03:09:23;;;;;;;18.23;12.25;;;9.00;99.90;;;;;;5069849;28;20032;-58
2022/11/17 03:11:53;;;;;;;21.08;11.75;;;;;;;;;;5070010;28;20037;-58
2022/11/17 03:14:35;;;;;;;16.80;12.02;;;8.40;99.90;;;;;;5069878;28;20040;-59
2022/11/17 03:17:17;;;;;;;16.85;12.48;;;8.80;99.90;;;;;;5050288;28;20044;-59
2022/11/17 03:19:56;;;;;;;16.60;11.43;;;8.40;99.90;;;;;;5069904;28;20037;-58
2022/11/17 03:22:31;;;;;;;16.80;12.02;;;8.60;99.90;;;;;;5069546;28;20035;-58
2022/11/17 03:24:59;;;;;;;;;;;8.80;99.90;;;;;;5062744;28;20040;-58
2022/11/17 03:27:29;;;;;;;17.23;11.55;;;8.60;99.90;;;;;;5068398;28;19923;-59
2022/11/17 03:29:59;;;;;;;16.60;12.18;;;;;;;;;;5061225;28;20119;-58
2022/11/17 03:32:29;;;;;;;17.20;11.07;;;8.70;99.90;;;;;;5069954;28;20036;-55
2022/11/17 03:34:58;;;;;;;16.45;10.85;;;8.60;99.90;;;;;;5061613;28;20032;-58
2022/11/17 03:37:25;;;;;;;16.45;12.05;;;;;;;;;;5071103;28;20398;-57
2022/11/17 03:40:00;;;;;;;16.52;11.13;;;8.40;99.90;;;;;;5073934;28;20037;-57
2022/11/17 03:42:28;;;;;;;17.35;11.98;;;;;;;;;;5073801;28;20115;-58
2022/11/17 03:45:06;;;;;;;16.25;10.88;;;;;;;;;;5065067;28;20036;-59
2022/11/17 03:47:33;;;;;;;16.77;11.23;;;;;;;;;;5073089;28;20036;-58
2022/11/17 03:50:11;;;;;;;15.88;10.93;;;;;;;;;;5073345;28;20039;-59
2022/11/17 03:52:37;;;;;;;17.85;10.65;;;;;;;;;;5073511;28;20034;-58
2022/11/17 03:55:03;;;;;;;15.98;11.88;;;;;;;;;;5073433;28;20220;-57
2022/11/17 03:57:36;;;;;;;16.27;11.05;;;;;;;;;;5073335;28;20078;-57
2022/11/17 04:00:13;;;;;;;15.95;12.23;;;;;;;;;;5053586;28;20032;-59
2022/11/17 04:02:43;;;;;;;16.83;11.50;;;8.60;99.90;;;;;;5079173;28;20036;-57
2022/11/17 04:05:10;;;;;;;16.55;10.88;;;;;;;;;;5055588;28;20368;-56
2022/11/17 04:07:39;;;;;;;20.75;11.68;;;;;;;;;;5072775;28;20028;-58
2022/11/17 04:10:05;;;;;;;16.02;10.43;;;;;;;;;;5073577;28;20097;-58
2022/11/17 04:18:00;;;;;;;18.10;11.73;;;8.70;99.90;;;;;;5073109;28;20119;-57
2022/11/17 04:20:26;;;;;;;17.10;10.20;;;;;;;;;;5072948;28;20124;-57
2022/11/17 04:23:06;;;;;;;18.65;13.27;;;8.50;99.90;;;;;;5055522;28;20028;-57
2022/11/17 04:28:36;;;;;;;16.48;10.90;;;;;;;;;;5072517;28;20040;-56
2022/11/17 04:31:19;;;;;;;16.17;11.18;;;;;;;;;;5066313;28;20064;-57
2022/11/17 04:33:50;;;;;;;16.35;10.00;;;8.40;99.90;;;;;;5073048;28;20054;-55
2022/11/17 04:36:18;;;;;;;14.00;9.88;;;8.50;99.90;;;;;;5072745;28;20029;-57
2022/11/17 04:38:46;;;;;;;16.20;10.95;;;;;;;;;;5072314;28;20049;-56
2022/11/17 04:43:58;;;;;;;14.27;9.73;;;8.50;99.90;;;;;;5067229;28;20044;-57
2022/11/17 04:46:24;;;;;;;13.90;9.40;;;8.50;99.90;;;;;;5072884;28;20040;-54
2022/11/17 04:48:52;;;;;;;15.35;9.95;;;;;;;;;;5083879;28;20454;-56
2022/11/17 04:51:18;;;;;;;12.63;8.55;;;8.50;99.90;;;;;;5073411;28;20093;-56
2022/11/17 04:53:44;;;;;;;13.18;9.02;;;8.50;99.90;;;;;;5073150;28;20044;-57
2022/11/17 04:56:10;;;;;;;14.63;10.13;;;;;;;;;;5054697;28;20028;-56
2022/11/17 04:58:36;;;;;;;14.95;9.82;;;;;;;;;;5072230;28;20045;-53
2022/11/17 05:01:12;;;;;;;15.02;10.40;;;;;;;;;;5072329;28;20070;-55
2022/11/17 05:03:42;;;;;;;14.07;9.63;;;8.80;99.90;;;;;;5072274;28;20072;-56
2022/11/17 05:06:09;;;;;;;12.95;8.88;;;;;;;;;;5072033;28;20036;-56
2022/11/17 05:08:36;;;;;;;17.20;11.73;;;8.60;99.90;;;;;;5072192;28;20033;-56
2022/11/17 05:13:48;;;;;;;15.90;10.38;;;8.60;99.90;;;;;;5053574;28;20048;-55
2022/11/17 05:18:59;;;;;;;13.60;8.83;;;;;;;;;;5071965;28;20434;-56
2022/11/17 05:21:24;;;;;;;14.23;9.50;;;8.40;99.90;;;;;;5072395;28;20274;-57
2022/11/17 05:23:53;;;;;;;15.95;11.07;;;;;;;;;;5071707;28;20517;-56
2022/11/17 05:26:30;;;;;;;12.65;8.80;;;;;;;;;;5070808;28;20115;-54
2022/11/17 05:28:57;;;;;;;14.95;9.27;;;;;;;;;;5070256;28;20307;-55
2022/11/17 05:31:23;;;;;;;13.85;10.05;;;8.40;99.90;;;;;;5072168;28;20046;-53
2022/11/17 05:33:49;;;;;;;14.07;9.35;;;8.30;99.90;;;;;;5073107;28;20028;-54
2022/11/17 05:36:15;;;;;;;17.13;10.75;;;;;;;;;;5069446;28;20154;-53
2022/11/17 05:38:41;;;;;;;14.27;9.98;;;7.70;99.90;;;;;;5072968;28;20072;-54
2022/11/17 05:41:07;;;;;;;13.98;10.05;;;;;;;;;;5071985;28;20516;-55
2022/11/17 05:43:33;;;;;;;17.73;10.45;;;;;;;;;;5071565;28;20040;-54
2022/11/17 05:45:59;;;;;;;15.35;9.45;;;;;;;;;;5066986;28;20120;-55
2022/11/17 05:48:25;;;;;;;14.23;9.32;;;;;;;;;;5066776;28;20033;-55
2022/11/17 05:50:55;;;;;;;12.98;9.30;;;8.70;99.90;;;;;;5062389;28;20032;-55
2022/11/17 05:53:22;;;;;;;13.15;9.27;;;;;;;;;;5052437;28;20031;-55
2022/11/17 05:55:49;;;;;;;13.38;9.15;;;8.50;99.90;;;;;;5037652;28;20091;-56
2022/11/17 05:58:32;;;;;;;14.43;9.50;;;;;;;;;;5052733;28;20036;-55
2022/11/17 06:00:58;;;;;;;13.60;9.20;;;;;;;;;;5047690;28;20124;-55
2022/11/17 06:03:26;;;;;;;12.88;8.18;;;;;;;;;;5065804;28;20068;-55
2022/11/17 06:05:53;;;;;;;13.82;9.00;;;;;;;;;;5070922;28;20036;-55
2022/11/17 06:08:19;;;;;;;14.40;8.90;;;;;;;;;;5077249;28;20033;-55
2022/11/17 06:10:45;;;;;;;12.13;8.20;;;;;;;;;;5076902;28;20083;-54
2022/11/17 06:13:11;;;;;;;12.77;8.88;;;8.20;99.90;;;;;;5077001;28;20451;-55
2022/11/17 06:15:38;;;;;;;12.18;8.82;;;;;;;;;;5082157;28;20036;-55
2022/11/17 06:18:15;;;;;;;14.80;8.70;;;7.90;99.90;;;;;;5075519;28;20405;-55
2022/11/17 06:20:47;;;;;;;13.20;8.00;;;8.60;99.90;;;;;;5071875;28;20169;-55
2022/11/17 06:23:15;;;;;;;12.13;8.27;;;8.70;99.90;;;;;;5071183;28;20542;-55
2022/11/17 06:25:41;;;;;;;11.48;6.90;;;8.40;99.90;;;;;;5070574;28;20045;-55
2022/11/17 06:28:11;;;;;;;10.43;6.70;;;8.00;99.90;;;;;;5079571;28;20055;-55
2022/11/17 06:30:41;;;;;;;10.77;7.10;;;8.50;99.90;;;;;;5072766;28;20035;-55
2022/11/17 06:33:12;;;;;;;11.50;7.05;;;8.70;99.90;;;;;;5071303;28;20029;-54
2022/11/17 06:35:39;;;;;;;12.20;7.45;;;;;;;;;;5070459;28;20089;-55
2022/11/17 06:38:05;;;;;;;11.40;7.57;;;;;;;;;;5070500;28;20047;-55
2022/11/17 06:40:33;;;;;;;12.00;7.60;;;;;;;;;;5060799;28;20028;-54
2022/11/17 06:43:08;;;;;;;11.25;7.75;;;8.40;99.90;;;;;;5060294;28;20037;-55
2022/11/17 06:45:42;;;;;;;10.00;6.82;;;;;;;;;;5048462;28;20044;-53
2022/11/17 06:48:09;;;;;;;12.35;7.43;;;8.80;99.90;;;;;;5064175;28;20058;-55
2022/11/17 06:50:34;;;;;;;10.93;7.35;;;8.20;99.90;;;;;;5068735;28;20029;-56
2022/11/17 06:53:02;;;;;;;11.23;7.60;;;;;;;;;;5066226;28;20044;-53
2022/11/17 06:55:28;;;;;;;9.70;6.40;;;8.20;99.90;;;;;;5057540;28;20044;-55
2022/11/17 06:58:01;;;;;;;10.25;6.15;;;8.30;99.90;;;;;;5072870;28;20041;-55
2022/11/17 07:00:28;;;;;;;10.27;6.60;;;;;;;;;;5069980;28;20036;-56
2022/11/17 07:03:01;;;;;;;9.27;5.80;;;;;;;;;;5070730;28;20043;-55
2022/11/17 07:05:27;;;;;;;9.30;5.38;;;;;;;;;;5069383;28;20110;-60
2022/11/17 07:07:56;;;;;;;11.02;6.43;;;;;;;;;;5099350;22;20472;-51
2022/11/17 07:10:22;;;;;;;9.88;6.65;;;8.10;99.90;;;;;;5098502;28;20038;-54
2022/11/17 07:12:48;;;;;;;10.30;6.57;;;;;;;;;;5102316;28;20039;-52
2022/11/17 07:15:20;;;;;;;9.23;6.07;;;8.10;99.90;;;;;;5102479;28;20558;-52
2022/11/17 07:17:46;;;;;;;36.80;11.30;;;8.00;99.90;;;;;;5101049;28;20040;-52
2022/11/17 07:20:12;;;;;;;9.88;5.68;;;;;;;;;;5096896;28;20448;-50
2022/11/17 07:22:40;;;;;;;9.90;6.53;;;;;;;;;;5101209;28;20123;-53
2022/11/17 07:25:14;;;;;;;8.82;5.85;;;7.60;99.90;;;;;;5076354;28;20107;-53
2022/11/17 07:27:40;;;;;;;;;;;;;;;;;;5096658;28;20494;-49
2022/11/17 07:30:08;;;;;;;9.55;5.95;;;;;;;;;;5097497;28;19991;-54
2022/11/17 07:32:34;;;;;;;9.45;6.28;;;8.20;99.90;;;;;;5097170;28;20036;-52
2022/11/17 07:35:06;;;;;;;9.23;6.60;;;8.10;99.90;;;;;;5102102;28;20110;-53
2022/11/17 07:37:33;;;;;;;10.25;6.43;;;;;;;;;;5100365;28;20111;-50
2022/11/17 07:39:59;;;;;;;9.13;6.57;;;;;;;;;;5102299;28;20038;-53
2022/11/17 07:42:25;;;;;;;8.85;5.72;;;;;;;;;;5096974;28;20040;-51
2022/11/17 07:44:51;;;;;;;11.32;7.07;;;8.20;99.90;;;;;;5085227;28;20040;-54
2022/11/17 07:47:16;;;;;;;9.10;6.25;;;8.10;99.90;;;;;;5095157;28;20040;-54
2022/11/17 07:49:42;;;;;;;9.75;6.20;;;;;;;;;;5102904;28;20040;-54
2022/11/17 07:52:08;;;;;;;9.85;6.47;;;8.20;99.90;;;;;;5084083;28;20040;-51
2022/11/17 07:54:34;;;;;;;16.80;7.00;;;;;;;;;;5102038;28;20037;-52
2022/11/17 07:57:00;;;;;;;8.27;5.82;;;;;;;;;;5101529;28;20036;-53
2022/11/17 07:59:26;;;;;;;9.80;6.95;;;;;;;;;;5094288;28;20047;-50
2022/11/17 08:01:52;;;;;;;9.05;6.50;;;8.20;99.90;;;;;;5068696;28;20032;-53
2022/11/17 08:04:18;;;;;;;9.27;5.97;;;;;;;;;;5102298;28;20069;-51
2022/11/17 08:06:47;;;;;;;9.23;6.20;;;;;;;;;;5079102;28;20036;-53
2022/11/17 08:09:16;;;;;;;10.02;7.13;;;;;;;;;;5098589;28;20100;-53
2022/11/17 08:11:42;;;;;;;9.25;6.38;;;8.10;99.90;;;;;;5102881;28;20409;-51
2022/11/17 08:14:09;;;;;;;9.20;6.40;;;8.00;99.90;;;;;;5103293;28;20390;-52
2022/11/17 08:16:38;;;;;;;10.23;6.05;;;;;;;;;;5110249;28;20046;-52
2022/11/17 08:19:05;;;;;;;9.65;6.00;;;;;;;;;;5110075;28;20035;-53
2022/11/17 08:21:35;;;;;;;11.73;6.03;;;8.10;99.90;;;;;;5110088;28;20119;-51
2022/11/17 08:24:01;;;;;;;8.93;5.63;;;;;;;;;;5112519;28;20046;-51
2022/11/17 08:26:27;;;;;;;9.93;6.15;;;;;;;;;;5114004;28;20039;-51
2022/11/17 08:28:53;;;;;;;18.75;7.68;;;;;;;;;;5113808;28;20038;-50
2022/11/17 08:31:19;;;;;;;9.23;6.20;;;;;;;;;;5114026;28;20052;-52
2022/11/17 08:33:45;;;;;;;10.02;5.97;;;;;;;;;;5113758;28;20043;-53
2022/11/17 08:36:11;;;;;;;9.07;5.85;;;;;;;;;;5089836;28;20040;-53
2022/11/17 08:38:37;;;;;;;8.55;5.32;;;8.00;99.90;;;;;;5086540;28;20474;-54
2022/11/17 08:41:04;;;;;;;8.70;5.68;;;;;;;;;;5100509;28;20066;-53
2022/11/17 08:43:30;;;;;;;11.23;6.05;;;8.10;99.90;;;;;;5102775;28;20111;-54
2022/11/17 08:45:57;;;;;;;8.77;5.05;;;;;;;;;;5079750;28;20394;-51
2022/11/17 08:48:23;;;;;;;7.85;5.65;;;;;;;;;;5103520;28;20055;-54
2022/11/17 08:50:50;;;;;;;8.85;5.55;;;8.50;99.90;;;;;;5100612;28;20118;-51
2022/11/17 08:53:17;;;;;;;8.88;5.97;;;;;;;;;;5087161;28;20040;-51
2022/11/17 08:55:44;;;;;;;8.15;5.20;;;;;;;;;;5102766;28;20077;-53
2022/11/17 08:58:11;;;;;;;9.60;5.53;;;;;;;;;;5102032;28;20158;-54
2022/11/17 09:00:37;;;;;;;8.23;4.93;;;;;;;;;;5102374;28;20047;-54
2022/11/17 09:03:10;;;;;;;8.20;4.95;;;;;;;;;;5096697;28;20032;-52
2022/11/17 09:05:39;;;;;;;10.23;5.38;;;;;;;;;;5103774;28;20128;-53
2022/11/17 09:08:10;;;;;;;8.73;5.32;;;7.80;99.90;;;;;;5097431;28;20039;-49
2022/11/17 09:10:39;;;;;;;8.88;5.68;;;;;;;;;;5106886;28;20042;-53
2022/11/17 09:13:05;;;;;;;9.23;5.45;;;;;;;;;;5101175;28;20036;-53
2022/11/17 09:15:31;;;;;;;8.00;5.53;;;;;;;;;;5111135;28;20118;-51
2022/11/17 09:17:57;;;;;;;8.05;5.05;;;8.20;99.90;;;;;;5112571;28;20054;-50
2022/11/17 09:20:26;;;;;;;7.72;4.97;;;7.90;99.90;;;;;;5112799;28;20473;-50
2022/11/17 09:22:58;;;;;;;8.27;4.78;;;;;;;;;;5096616;28;20114;-51
2022/11/17 09:25:27;;;;;;;7.78;4.90;;;;;;;;;;5112897;28;20078;-52
2022/11/17 09:27:53;;;;;;;7.63;4.72;;;;;;;;;;5112579;28;20063;-50
2022/11/17 09:30:21;;;;;;;8.68;4.95;;;;;;;;;;5112595;28;20060;-53
2022/11/17 09:32:50;;;;;;;7.80;4.72;;;;;;;;;;5113024;28;20043;-50
2022/11/17 09:35:21;;;;;;;8.05;5.07;;;;;;;;;;5093403;28;20118;-51
2022/11/17 09:37:50;;;;;;;8.68;5.13;;;;;;;;;;5111414;28;20056;-50
2022/11/17 09:40:18;;;;;;;8.88;5.35;;;;;;;;;;5112656;28;20123;-51
2022/11/17 09:42:44;;;;;;;7.50;4.60;;;;;;;;;;5112408;28;20074;-53
2022/11/17 09:45:22;;;;;;;8.35;4.72;;;8.60;99.90;;;;;;5112686;28;20410;-51
2022/11/17 09:47:57;;;;;;;8.80;5.13;;;8.00;99.90;;;;;;5112051;28;20313;-52
2022/11/17 09:50:23;;;;;;;;;;;;;;;;;;5112841;28;20111;-53
2022/11/17 09:53:01;;;;;;;7.63;4.65;;;;;;;;;;5093871;28;19988;-48
2022/11/17 09:55:38;;;;;;;7.85;4.55;;;;;;;;;;5094288;28;20040;-53
2022/11/17 09:58:12;;;;;;;8.00;4.82;;;8.10;99.90;;;;;;5093715;28;20036;-50
2022/11/17 10:00:39;;;;;;;12.57;5.82;;;;;;;;;;5112428;28;20031;-51
2022/11/17 10:03:17;;;;;;;8.25;5.10;;;;;;;;;;5093178;28;20127;-53
2022/11/17 10:05:47;;;;;;;7.68;4.95;;;8.60;99.90;;;;;;5111909;28;20047;-51
2022/11/17 10:08:16;;;;;;;7.78;5.00;;;;;;;;;;5111173;28;20081;-54
2022/11/17 10:10:47;;;;;;;8.40;5.10;;;8.40;99.90;;;;;;5112243;28;20087;-50
2022/11/17 10:13:35;;;;;;;9.45;5.30;;;8.50;99.90;;;;;;5111882;28;20493;-53
2022/11/17 10:16:13;;;;;;;9.07;4.90;;;8.20;99.90;;;;;;5105047;28;20121;-49
2022/11/17 10:18:42;;;;;;;7.45;4.40;;;;;;;;;;5105068;28;20294;-50
2022/11/17 10:21:08;;;;;;;7.00;4.45;;;8.20;99.90;;;;;;5095049;28;20032;-53
2022/11/17 10:23:38;;;;;;;7.20;4.60;;;;;;;;;;5102441;28;20080;-50
2022/11/17 10:26:12;;;;;;;7.13;4.15;;;8.60;99.90;;;;;;5098319;28;20055;-51
2022/11/17 10:28:38;;;;;;;8.25;4.97;;;;;;;;;;5082087;28;20430;-53
2022/11/17 10:31:11;;;;;;;9.48;4.40;;;8.50;99.90;;;;;;5099605;28;20040;-52
2022/11/17 10:33:42;;;;;;;7.95;4.57;;;;;;;;;;5101511;28;20040;-53
2022/11/17 10:36:18;;;;;;;6.70;4.20;;;;;;;;;;5093513;28;20035;-51
2022/11/17 10:38:48;;;;;;;6.72;3.83;;;;;;;;;;5102945;28;20556;-49
2022/11/17 10:41:16;;;;;;;7.50;4.20;;;;;;;;;;5073092;28;20048;-51
2022/11/17 10:43:46;;;;;;;9.00;5.43;;;;;;;;;;5083248;28;20088;-54
2022/11/17 10:46:14;;;;;;;6.82;4.05;;;;;;;;;;5101016;28;20405;-54
2022/11/17 10:48:53;;;;;;;6.55;3.95;;;;;;;;;;5104037;28;20140;-53
2022/11/17 10:51:19;;;;;;;7.00;4.22;;;;;;;;;;5100292;28;20036;-51
2022/11/17 10:54:00;;;;;;;7.75;4.32;;;;;;;;;;5109027;28;20401;-51
2022/11/17 10:56:29;;;;;;;8.77;4.00;;;8.60;99.90;;;;;;5102378;28;20071;-54
2022/11/17 10:59:03;;;;;;;7.55;4.45;;;;;;;;;;5086251;28;20035;-49
2022/11/17 11:01:32;;;;;;;6.75;3.97;;;8.90;99.90;;;;;;5103713;28;20027;-53
2022/11/17 11:03:58;;;;;;;7.15;3.80;;;;;;;;;;5102971;28;20110;-52
2022/11/17 11:06:26;;;;;;;6.05;3.45;;;;;;;;;;5087621;28;20111;-52
2022/11/17 11:09:04;;;;;;;7.18;3.90;;;;;;;;;;5085507;28;20082;-54
2022/11/17 11:11:40;;;;;;;6.72;3.83;;;;;;;;;;5107262;28;20036;-50
2022/11/17 11:14:12;;;;;;;7.35;4.40;;;;;;;;;;5086638;28;20465;-51
2022/11/17 11:16:38;;;;;;;6.72;4.00;;;;;;;;;;5110619;28;20075;-54
2022/11/17 11:19:12;;;;;;;7.10;4.07;;;8.90;99.90;;;;;;5110418;28;20094;-52
2022/11/17 11:21:56;;;;;;;6.82;4.10;;;;;;;;;;5110431;28;20036;-54
2022/11/17 11:24:25;;;;;;;7.68;4.30;;;;;;;;;;5102633;28;20050;-53
2022/11/17 11:27:04;;;;;;;6.47;4.03;;;;;;;;;;5110307;28;20040;-51
2022/11/17 11:29:42;;;;;;;6.53;4.38;;;;;;;;;;5104236;28;20053;-51
2022/11/17 11:32:16;;;;;;;7.78;4.78;;;9.00;99.90;;;;;;5109511;28;20107;-48
2022/11/17 11:35:02;;;;;;;6.68;4.32;;;;;;;;;;5086724;28;20040;-50
2022/11/17 11:38:02;;;;;;;8.05;5.00;;;8.60;99.90;;;;;;5102842;28;20046;-50
2022/11/17 11:40:38;;;;;;;7.65;4.85;;;8.70;99.90;;;;;;5096950;28;20119;-51
2022/11/17 11:43:29;;;;;;;7.10;4.40;;;8.00;99.90;;;;;;5077546;28;20619;-53
2022/11/17 11:46:02;;;;;;;7.22;4.80;;;;;;;;;;5091691;28;20062;-53
2022/11/17 11:48:32;;;;;;;6.65;3.97;;;8.70;99.90;;;;;;5097770;28;20032;-52
2022/11/17 11:51:03;;;;;;;13.15;11.80;;;;;;;;;;5095127;28;20036;-53
2022/11/17 11:53:32;;;;;;;11.80;9.95;;;;;;;;;;5102648;28;20410;-53
2022/11/17 11:56:16;;;;;;;7.85;5.18;;;;;;;;;;5098975;28;20460;-49
2022/11/17 11:59:22;;;;;;;8.23;6.35;;;8.10;99.90;;;;;;5100676;28;20035;-51
2022/11/17 12:01:48;;;;;;;7.80;4.47;;;;;;;;;;5099662;28;20477;-50
2022/11/17 12:04:25;;;;;;;7.50;4.50;;;8.70;99.90;;;;;;5088155;28;20046;-50
2022/11/17 12:06:59;;;;;;;11.52;8.70;;;8.40;99.90;;;;;;5108207;28;20101;-49
2022/11/17 12:09:31;;;;;;;7.77;4.50;;;;;;;;;;5105196;28;20028;-47
2022/11/17 12:12:01;;;;;;;6.28;3.60;;;8.60;99.90;;;;;;5102451;28;20445;-49
2022/11/17 12:14:28;;;;;;;7.47;4.38;;;;;;;;;;5082677;28;20031;-49
2022/11/17 12:17:02;;;;;;;6.07;3.47;;;;;;;;;;5108296;28;20039;-51
2022/11/17 12:19:43;;;;;;;;;;;8.80;99.90;;;;;;5110413;28;20096;-47
2022/11/17 12:22:17;;;;;;;7.47;3.42;;;;;;;;;;5101574;28;19947;-48
2022/11/17 12:24:43;;;;;;;9.40;3.45;;;;;;;;;;5104686;28;20040;-53
2022/11/17 12:27:28;;;;;;;7.75;3.67;;;;;;;;;;5104101;28;20061;-51
2022/11/17 12:29:55;;;;;;;6.63;4.18;;;;;;;;;;5098054;28;20066;-53
2022/11/17 12:32:46;;;;;;;5.43;2.95;;;8.60;99.90;;;;;;5105563;28;20403;-50
2022/11/17 12:35:27;;;;;;;5.63;2.92;;;9.30;99.90;;;;;;5090320;28;20040;-48
2022/11/17 12:38:14;;;;;;;6.03;3.30;;;;;;;;;;5095749;28;20028;-52
2022/11/17 12:40:43;;;;;;;6.18;3.50;;;8.80;99.90;;;;;;5104840;28;20493;-52
2022/11/17 12:43:15;;;;;;;7.40;3.75;;;;;;;;;;5102764;28;20035;-51
2022/11/17 12:45:53;;;;;;;6.28;3.25;;;;;;;;;;5098754;28;20054;-52
2022/11/17 12:48:23;;;;;;;6.93;4.47;;;;;;;;;;5103282;28;20036;-47
2022/11/17 12:51:06;;;;;;;7.60;4.70;;;;;;;;;;5101382;28;20118;-51
2022/11/17 12:53:51;;;;;;;10.68;8.75;;;9.20;99.90;;;;;;5088666;28;20040;-50
2022/11/17 12:56:19;;;;;;;8.75;6.18;;;8.70;99.90;;;;;;5099142;28;20371;-53
2022/11/17 12:58:47;;;;;;;9.63;6.18;;;9.20;99.90;;;;;;5104080;28;20548;-53
2022/11/17 13:01:32;;;;;;;6.82;3.88;;;;;;;;;;5103066;28;20085;-52
2022/11/17 13:04:10;;;;;;;5.65;3.17;;;;;;;;;;5098046;28;20149;-50
2022/11/17 13:06:36;;;;;;;6.40;3.53;;;;;;;;;;5103987;28;20069;-52
2022/11/17 13:09:05;;;;;;;6.97;3.60;;;;;;;;;;5102196;22;20549;-74
2022/11/17 13:11:31;;;;;;;5.70;3.15;;;;;;;;;;5033528;28;20557;-72
2022/11/17 13:14:10;;;;;;;7.68;3.70;;;;;;;;;;5080742;28;20040;-72
2022/11/17 13:16:37;;;;;;;38.38;23.25;;;;;;;;;;5083831;28;20046;-72
2022/11/17 13:19:04;;;;;;;14.55;9.60;;;;;;;;;;5100113;28;20122;-70
2022/11/17 13:21:31;;;;;;;8.80;5.47;;;;;;;;;;5091360;28;20125;-67
2022/11/17 13:23:59;;;;;;;9.80;8.63;;;;;;;;;;5087208;28;20418;-68
2022/11/17 13:26:25;;;;;;;9.02;6.32;;;;;;;;;;5094744;28;20475;-69
2022/11/17 13:29:14;;;;;;;7.63;5.45;;;;;;;;;;5081535;28;20118;-71
2022/11/17 13:31:40;;;;;;;10.15;8.57;;;;;;;;;;5099762;28;20176;-70
2022/11/17 13:34:13;;;;;;;9.05;6.60;;;;;;;;;;5098770;28;20111;-69
2022/11/17 13:36:55;;;;;;;7.78;4.80;;;;;;;;;;5100111;28;20032;-69
2022/11/17 13:39:21;;;;;;;9.48;4.45;;;;;;;;;;5095500;28;20036;-71
2022/11/17 13:41:47;;;;;;;8.82;6.07;;;;;;;;;;5098589;28;20057;-70
2022/11/17 13:44:17;;;;;;;11.38;7.50;;;9.00;99.90;;;;;;5076802;28;20123;-69
2022/11/17 13:46:43;;;;;;;8.75;7.30;;;;;;;;;;5084434;28;20055;-70
2022/11/17 13:49:28;;;;;;;8.48;5.22;;;;;;;;;;5098133;28;20561;-69
2022/11/17 13:51:54;;;;;;;7.75;4.65;;;;;;;;;;5098958;28;20124;-68
2022/11/17 13:54:21;;;;;;;9.05;4.78;;;;;;;;;;5084230;28;20055;-69
2022/11/17 13:56:47;;;;;;;7.20;4.53;;;;;;;;;;5077937;28;20449;-69
2022/11/17 13:59:24;;;;;;;7.80;4.80;;;9.30;99.90;;;;;;5085665;28;20042;-70
2022/11/17 14:02:09;;;;;;;7.43;4.55;;;;;;;;;;5059934;28;20035;-71
2022/11/17 14:04:35;;;;;;;6.90;4.35;;;;;;;;;;5101370;28;20035;-69
2022/11/17 14:07:02;;;;;;;10.30;5.45;;;;;;;;;;5082527;28;20205;-68
2022/11/17 14:09:30;;;;;;;8.55;5.03;;;9.30;99.90;;;;;;5097706;28;20039;-68
2022/11/17 14:11:57;;;;;;;7.63;4.60;;;;;;;;;;5086192;28;20040;-67
2022/11/17 14:14:32;;;;;;;9.63;4.72;;;9.90;99.90;;;;;;5086810;28;20024;-66
2022/11/17 14:17:09;;;;;;;7.72;4.80;;;9.50;99.90;;;;;;5091950;28;20137;-67
2022/11/17 14:19:35;;;;;;;10.25;4.97;;;9.40;99.90;;;;;;5090965;28;20036;-67
2022/11/17 14:22:03;;;;;;;9.07;4.90;;;;;;;;;;5092882;28;20519;-66
2022/11/17 14:24:32;;;;;;;9.23;4.80;;;;;;;;;;5091112;28;20059;-69
2022/11/17 14:26:59;;;;;;;14.48;9.82;;;;;;;;;;5095532;28;20036;-68
2022/11/17 14:29:26;;;;;;;8.48;5.05;;;;;;;;;;5090515;28;20040;-68
2022/11/17 14:31:53;;;;;;;8.40;4.72;;;;;;;;;;5090611;28;20070;-68
2022/11/17 14:34:18;;;;;;;8.32;4.85;;;9.50;99.90;;;;;;5089276;28;20036;-69
2022/11/17 14:36:51;;;;;;;9.15;4.00;;;;;;;;;;5090603;28;20112;-68
2022/11/17 14:39:18;;;;;;;11.45;5.85;;;;;;;;;;5089795;28;20465;-68
2022/11/17 14:41:44;;;;;;;8.32;4.90;;;;;;;;;;5083081;28;20127;-69